createdAt,value
2023-03-23T15:58:47.013Z,6.95
2023-03-23T15:59:51.704Z,6.18
2023-03-23T16:00:55.982Z,6.68
2023-03-23T16:01:59.860Z,6.63
2023-03-23T16:03:06.442Z,7.15
2023-03-23T16:04:13.643Z,6.32
2023-03-23T16:05:16.504Z,7.30
2023-03-23T16:06:24.111Z,6.82
2023-03-23T16:07:29.357Z,6.53
2023-03-23T16:09:35.954Z,6.18
2023-03-23T16:10:39.163Z,6.78
2023-03-23T16:11:43.072Z,6.88
2023-03-23T16:12:45.852Z,6.20
2023-03-23T16:13:49.399Z,6.57
2023-03-23T16:14:53.715Z,5.93
2023-03-23T16:15:57.183Z,6.85
2023-03-23T16:16:59.619Z,6.45
2023-03-23T16:18:03.471Z,6.28
2023-03-23T16:19:07.051Z,6.07
2023-03-23T16:20:17.358Z,6.85
2023-03-23T16:21:20.119Z,6.55
2023-03-23T16:22:24.079Z,6.32
2023-03-23T16:23:27.330Z,6.90
2023-03-23T16:24:30.945Z,6.57
2023-03-23T16:25:33.312Z,5.88
2023-03-23T16:26:37.211Z,6.63
2023-03-23T16:27:40.152Z,6.05
2023-03-23T16:28:44.406Z,6.45
2023-03-23T16:30:02.826Z,6.00
2023-03-23T16:31:10.009Z,6.25
2023-03-23T16:32:13.109Z,6.18
2023-03-23T16:33:16.885Z,5.72
2023-03-23T16:35:23.490Z,5.82
2023-03-23T16:36:27.001Z,5.65
2023-03-23T16:37:33.594Z,5.53
2023-03-23T16:38:49.813Z,6.43
2023-03-23T16:39:54.731Z,6.40
2023-03-23T16:42:00.672Z,5.63
2023-03-23T16:43:08.929Z,5.95
2023-03-23T16:44:13.807Z,6.03
2023-03-23T16:45:17.271Z,6.43
2023-03-23T16:46:22.474Z,5.90
2023-03-23T16:47:25.726Z,6.57
2023-03-23T16:48:29.832Z,5.75
2023-03-23T16:49:32.397Z,6.85
2023-03-23T16:50:36.984Z,6.18
2023-03-23T16:51:40.539Z,6.55
2023-03-23T16:52:47.885Z,6.15
2023-03-23T16:53:51.377Z,6.78
2023-03-23T16:54:53.892Z,5.93
2023-03-23T16:55:58.117Z,6.65
2023-03-23T16:57:00.583Z,6.53
2023-03-23T16:58:16.492Z,7.82
2023-03-23T16:59:20.960Z,6.93
2023-03-23T17:01:28.695Z,7.47
2023-03-23T17:02:31.331Z,6.20
2023-03-23T17:03:36.149Z,7.75
2023-03-23T17:04:43.594Z,7.03
2023-03-23T17:05:49.235Z,6.88
2023-03-23T17:06:51.987Z,7.82
2023-03-23T17:07:56.989Z,6.93
2023-03-23T17:09:00.417Z,6.63
2023-03-23T17:10:02.842Z,6.53
2023-03-23T17:11:07.623Z,6.32
2023-03-23T17:12:10.868Z,6.65
2023-03-23T17:13:14.796Z,6.88
2023-03-23T17:14:18.383Z,7.05
2023-03-23T17:15:21.158Z,5.93
2023-03-23T17:16:24.733Z,6.28
2023-03-23T17:17:29.483Z,8.15
2023-03-23T17:18:33.676Z,6.93
2023-03-23T17:19:36.234Z,6.47
2023-03-23T17:20:39.894Z,6.50
2023-03-23T17:21:42.647Z,6.35
2023-03-23T17:22:46.622Z,7.43
2023-03-23T17:23:49.189Z,7.00
2023-03-23T17:24:52.762Z,6.32
2023-03-23T17:25:55.858Z,6.35
2023-03-23T17:26:59.387Z,6.47
2023-03-23T17:28:05.803Z,6.72
2023-03-23T17:29:09.956Z,6.90
2023-03-23T17:30:12.904Z,6.80
2023-03-23T17:31:16.499Z,6.95
2023-03-23T17:32:20.901Z,5.65
2023-03-23T17:33:26.148Z,6.68
2023-03-23T17:34:28.716Z,6.38
2023-03-23T17:35:32.377Z,7.00
2023-03-23T17:36:34.967Z,6.47
2023-03-23T17:37:39.657Z,6.57
2023-03-23T17:38:43.398Z,6.82
2023-03-23T17:40:58.692Z,6.05
2023-03-23T17:42:01.495Z,6.40
2023-03-23T17:43:05.333Z,7.15
2023-03-23T17:44:08.149Z,6.88
2023-03-23T17:45:12.206Z,6.68
2023-03-23T17:46:15.333Z,7.28
2023-03-23T17:47:19.019Z,7.70
2023-03-23T17:48:23.386Z,7.35
2023-03-23T17:49:28.506Z,7.65
2023-03-23T17:50:32.157Z,7.25
2023-03-23T17:51:34.662Z,7.25
2023-03-23T17:52:38.331Z,7.72
2023-03-23T17:53:40.810Z,6.72
2023-03-23T17:54:44.545Z,7.28
2023-03-23T17:56:50.288Z,7.20
2023-03-23T17:57:53.950Z,7.22
2023-03-23T17:58:56.430Z,6.57
2023-03-23T18:00:00.229Z,6.15
2023-03-23T18:02:06.927Z,6.32
2023-03-23T18:03:09.505Z,6.10
2023-03-23T18:04:13.150Z,6.82
2023-03-23T18:05:18.396Z,6.43
2023-03-23T18:06:21.104Z,6.20
2023-03-23T18:07:24.584Z,6.38
2023-03-23T18:08:28.505Z,6.35
2023-03-23T18:09:32.185Z,6.38
2023-03-23T18:10:36.819Z,6.72
2023-03-23T18:11:40.813Z,6.70
2023-03-23T18:12:43.584Z,6.93
2023-03-23T18:13:47.137Z,6.15
2023-03-23T18:14:49.875Z,6.20
2023-03-23T18:15:55.120Z,6.78
2023-03-23T18:16:57.683Z,6.28
2023-03-23T18:18:03.732Z,6.25
2023-03-23T18:19:06.692Z,6.15
2023-03-23T18:20:11.258Z,6.50
2023-03-23T18:21:16.362Z,6.65
2023-03-23T18:22:18.981Z,7.00
2023-03-23T18:23:22.556Z,5.80
2023-03-23T18:24:26.071Z,5.95
2023-03-23T18:25:28.564Z,6.65
2023-03-23T18:26:32.298Z,5.78
2023-03-23T18:28:38.867Z,6.57
2023-03-23T18:29:42.442Z,6.60
2023-03-23T18:30:49.366Z,6.47
2023-03-23T18:31:53.201Z,5.95
2023-03-23T18:32:55.961Z,6.43
2023-03-23T18:33:59.698Z,6.05
2023-03-23T18:35:03.898Z,5.72
2023-03-23T18:36:07.711Z,5.70
2023-03-23T18:37:13.062Z,6.05
2023-03-23T18:38:15.842Z,6.40
2023-03-23T18:39:19.416Z,6.18
2023-03-23T18:40:21.975Z,6.32
2023-03-23T18:41:26.136Z,5.80
2023-03-23T18:42:30.628Z,5.82
2023-03-23T18:43:33.219Z,6.40
2023-03-23T18:44:36.887Z,5.25
2023-03-23T18:45:39.511Z,6.20
2023-03-23T18:46:43.161Z,4.68
2023-03-23T18:47:45.879Z,5.50
2023-03-23T18:48:49.410Z,5.65
2023-03-23T18:49:55.347Z,5.20
2023-03-23T18:50:59.573Z,5.22
2023-03-23T18:52:03.334Z,5.80
2023-03-23T18:54:13.554Z,5.32
2023-03-23T18:55:17.578Z,5.47
2023-03-23T18:56:20.995Z,5.35
2023-03-23T18:57:24.811Z,5.40
2023-03-23T18:59:34.052Z,5.53
2023-03-23T19:00:37.524Z,5.15
2023-03-23T19:01:41.153Z,5.15
2023-03-23T19:02:43.829Z,5.63
2023-03-23T19:03:47.956Z,5.93
2023-03-23T19:04:51.135Z,5.45
2023-03-23T19:05:59.590Z,5.10
2023-03-23T19:07:04.552Z,5.80
2023-03-23T19:08:12.225Z,6.10
2023-03-23T19:09:15.614Z,5.15
2023-03-23T19:10:22.001Z,6.30
2023-03-23T19:11:27.440Z,5.25
2023-03-23T19:12:29.930Z,5.90
2023-03-23T19:13:37.540Z,5.68
2023-03-23T19:14:41.457Z,5.85
2023-03-23T19:15:45.403Z,5.28
2023-03-23T19:16:49.667Z,5.13
2023-03-23T19:17:56.278Z,5.35
2023-03-23T19:19:01.642Z,4.95
2023-03-23T19:20:05.284Z,4.95
2023-03-23T19:21:13.338Z,5.05
2023-03-23T19:22:18.685Z,5.03
2023-03-23T19:23:23.752Z,5.15
2023-03-23T19:24:30.425Z,4.78
2023-03-23T19:25:33.844Z,4.88
2023-03-23T19:26:39.207Z,4.47
2023-03-23T19:28:13.727Z,5.03
2023-03-23T19:30:13.470Z,5.22
2023-03-23T19:31:17.252Z,5.13
2023-03-23T19:33:24.147Z,5.18
2023-03-23T19:34:30.772Z,4.88
2023-03-23T19:35:33.374Z,5.10
2023-03-23T19:36:37.743Z,6.72
2023-03-23T19:37:40.405Z,4.82
2023-03-23T19:38:45.594Z,5.25
2023-03-23T19:39:48.085Z,4.85
2023-03-23T19:40:56.050Z,5.53
2023-03-23T19:42:04.355Z,5.55
2023-03-23T19:43:07.333Z,4.75
2023-03-23T19:44:11.217Z,4.80
2023-03-23T19:45:13.781Z,5.50
2023-03-23T19:46:17.859Z,5.40
2023-03-23T19:47:22.318Z,5.30
2023-03-23T19:48:26.138Z,4.72
2023-03-23T19:50:33.368Z,4.72
2023-03-23T19:51:37.090Z,5.18
2023-03-23T19:52:42.016Z,5.18
2023-03-23T19:53:47.659Z,5.50
2023-03-23T19:54:50.103Z,5.32
2023-03-23T19:55:53.759Z,5.00
2023-03-23T19:56:59.185Z,5.50
2023-03-23T19:58:03.116Z,4.88
2023-03-23T19:59:08.114Z,5.70
2023-03-23T20:00:13.538Z,5.95
2023-03-23T20:01:18.021Z,4.95
2023-03-23T20:02:20.630Z,5.35
2023-03-23T20:03:26.025Z,4.82
2023-03-23T20:04:29.922Z,5.30
2023-03-23T20:05:34.319Z,5.15
2023-03-23T20:06:39.011Z,4.70
2023-03-23T20:07:44.530Z,5.45
2023-03-23T20:08:53.037Z,4.90
2023-03-23T20:09:55.538Z,5.00
2023-03-23T20:11:05.442Z,4.72
2023-03-23T20:12:08.473Z,5.53
2023-03-23T20:13:13.205Z,5.90
2023-03-23T20:14:17.773Z,5.22
2023-03-23T20:15:20.740Z,5.90
2023-03-23T20:16:25.725Z,5.88
2023-03-23T20:17:29.874Z,6.25
2023-03-23T20:18:34.349Z,5.50
2023-03-23T20:19:38.684Z,5.20
2023-03-23T20:20:42.196Z,5.03
2023-03-23T20:21:45.651Z,6.18
2023-03-23T20:22:51.086Z,5.60
2023-03-23T20:23:59.527Z,5.32
2023-03-23T20:25:02.447Z,5.35
2023-03-23T20:26:08.658Z,6.10
2023-03-23T20:27:11.747Z,5.93
2023-03-23T20:28:16.660Z,5.85
2023-03-23T20:29:19.216Z,5.75
2023-03-23T20:30:23.051Z,5.75
2023-03-23T20:31:27.486Z,6.15
2023-03-23T20:32:33.286Z,5.47
2023-03-23T20:33:36.222Z,5.10
2023-03-23T20:34:40.060Z,5.53
2023-03-23T20:36:49.225Z,5.88
2023-03-23T20:37:52.925Z,5.45
2023-03-23T20:38:57.716Z,6.05
2023-03-23T20:40:01.447Z,5.85
2023-03-23T20:42:09.547Z,5.20
2023-03-23T20:43:14.063Z,5.53
2023-03-23T20:44:19.044Z,5.50
2023-03-23T20:45:21.741Z,6.22
2023-03-23T20:46:26.061Z,6.45
2023-03-23T20:47:28.864Z,5.93
2023-03-23T20:48:35.044Z,6.78
2023-03-23T20:49:38.833Z,6.70
2023-03-23T20:51:46.812Z,5.82
2023-03-23T20:52:49.304Z,5.97
2023-03-23T20:53:53.436Z,6.43
2023-03-23T20:54:58.390Z,6.65
2023-03-23T20:56:03.583Z,6.32
2023-03-23T20:57:07.275Z,5.65
2023-03-23T20:58:09.737Z,6.63
2023-03-23T20:59:13.669Z,6.05
2023-03-23T21:00:18.220Z,5.97
2023-03-23T21:01:21.853Z,5.63
2023-03-23T21:02:26.517Z,6.05
2023-03-23T21:03:31.349Z,5.90
2023-03-23T21:04:37.393Z,6.53
2023-03-23T21:05:41.305Z,5.55
2023-03-23T21:06:45.642Z,6.55
2023-03-23T21:07:52.955Z,5.57
2023-03-23T21:08:56.543Z,5.60
2023-03-23T21:10:01.957Z,5.90
2023-03-23T21:11:06.016Z,6.03
2023-03-23T21:12:10.520Z,5.68
2023-03-23T21:13:13.425Z,5.78
2023-03-23T21:14:17.323Z,6.90
2023-03-23T21:15:20.592Z,5.72
2023-03-23T21:16:25.297Z,4.60
2023-03-23T21:17:28.940Z,6.05
2023-03-23T21:18:32.331Z,7.07
2023-03-23T21:19:36.526Z,5.82
2023-03-23T21:20:41.983Z,6.63
2023-03-23T21:21:55.399Z,6.57
2023-03-23T21:23:03.035Z,6.50
2023-03-23T21:24:09.442Z,5.70
2023-03-23T21:25:14.763Z,6.63
2023-03-23T21:26:17.919Z,5.75
2023-03-23T21:27:21.705Z,5.68
2023-03-23T21:29:29.607Z,5.78
2023-03-23T21:30:32.111Z,5.55
2023-03-23T21:31:37.011Z,5.68
2023-03-23T21:32:39.602Z,6.65
2023-03-23T21:33:43.300Z,7.30
2023-03-23T21:35:50.211Z,5.97
2023-03-23T21:36:53.907Z,5.60
2023-03-23T21:37:58.351Z,6.00
2023-03-23T21:39:06.324Z,5.65
2023-03-23T21:40:14.271Z,6.18
2023-03-23T21:41:19.399Z,6.75
2023-03-23T21:42:30.638Z,6.10
2023-03-23T21:43:51.855Z,5.43
2023-03-23T21:44:54.498Z,6.10
2023-03-23T21:46:03.084Z,6.22
2023-03-23T21:47:06.850Z,6.28
2023-03-23T21:48:09.859Z,6.35
2023-03-23T21:49:16.429Z,6.55
2023-03-23T21:50:22.306Z,6.80
2023-03-23T21:51:28.113Z,5.75
2023-03-23T21:52:32.640Z,6.32
2023-03-23T21:53:37.222Z,6.00
2023-03-23T21:54:41.474Z,5.72
2023-03-23T21:55:48.284Z,7.07
2023-03-23T21:56:53.405Z,6.10
2023-03-23T21:57:56.503Z,6.53
2023-03-23T21:59:01.409Z,6.60
2023-03-23T22:00:06.418Z,5.82
2023-03-23T22:01:10.890Z,5.30
2023-03-23T22:02:17.097Z,6.20
2023-03-23T22:03:22.912Z,6.30
2023-03-23T22:04:28.109Z,6.28
2023-03-23T22:05:32.341Z,6.00
2023-03-23T22:06:36.230Z,6.25
2023-03-23T22:07:40.660Z,6.50
2023-03-23T22:08:46.116Z,6.28
2023-03-23T22:09:50.925Z,6.53
2023-03-23T22:11:01.884Z,6.22
2023-03-23T22:12:08.680Z,5.43
2023-03-23T22:13:12.227Z,6.55
2023-03-23T22:14:18.245Z,6.63
2023-03-23T22:15:28.086Z,6.30
2023-03-23T22:16:35.728Z,6.10
2023-03-23T22:17:38.990Z,6.40
2023-03-23T22:18:46.606Z,6.38
2023-03-23T22:19:50.783Z,6.40
2023-03-23T22:20:53.817Z,6.88
2023-03-23T22:21:57.493Z,6.13
2023-03-23T22:23:00.317Z,6.97
2023-03-23T22:24:04.016Z,6.53
2023-03-23T22:26:11.526Z,6.13
2023-03-23T22:27:19.051Z,6.28
2023-03-23T22:28:26.754Z,5.93
2023-03-23T22:29:30.645Z,6.85
2023-03-23T22:31:39.997Z,6.45
2023-03-23T22:32:42.930Z,7.18
2023-03-23T22:33:47.784Z,6.97
2023-03-23T22:34:52.170Z,6.53
2023-03-23T22:35:56.002Z,6.53
2023-03-23T22:36:58.674Z,6.43
2023-03-23T22:38:03.415Z,7.53
2023-03-23T22:39:06.768Z,6.53
2023-03-23T22:40:11.680Z,6.10
2023-03-23T22:41:18.375Z,7.20
2023-03-23T22:42:23.493Z,7.28
2023-03-23T22:43:27.207Z,6.68
2023-03-23T22:44:31.100Z,6.88
2023-03-23T22:45:33.949Z,7.32
2023-03-23T22:46:39.873Z,6.15
2023-03-23T22:47:43.806Z,6.57
2023-03-23T22:48:46.589Z,6.45
2023-03-23T22:49:53.658Z,6.60
2023-03-23T22:50:59.041Z,6.47
2023-03-23T22:52:04.149Z,6.88
2023-03-23T22:53:07.058Z,6.35
2023-03-23T22:54:12.199Z,5.78
2023-03-23T22:55:32.186Z,5.93
2023-03-23T22:56:53.784Z,6.32
2023-03-23T22:58:05.474Z,6.95
2023-03-23T22:59:09.627Z,6.40
2023-03-23T23:00:15.137Z,6.32
2023-03-23T23:01:21.368Z,6.85
2023-03-23T23:02:26.791Z,6.82
2023-03-23T23:03:31.677Z,5.72
2023-03-23T23:04:34.539Z,6.90
2023-03-23T23:05:43.070Z,6.70
2023-03-23T23:06:45.881Z,6.70
2023-03-23T23:07:49.536Z,7.95
2023-03-23T23:08:52.971Z,6.45
2023-03-23T23:09:59.416Z,6.63
2023-03-23T23:11:20.781Z,7.05
2023-03-23T23:12:35.482Z,6.10
2023-03-23T23:13:40.109Z,7.00
2023-03-23T23:14:44.937Z,6.85
2023-03-23T23:15:54.893Z,6.95
2023-03-23T23:18:03.316Z,5.80
2023-03-23T23:19:10.071Z,6.95
2023-03-23T23:20:17.178Z,6.15
2023-03-23T23:21:25.475Z,6.25
2023-03-23T23:22:31.598Z,7.13
2023-03-23T23:23:38.378Z,6.63
2023-03-23T23:24:41.630Z,6.53
2023-03-23T23:25:46.073Z,6.55
2023-03-23T23:27:00.127Z,6.68
2023-03-23T23:28:05.265Z,6.10
2023-03-23T23:29:09.714Z,6.28
2023-03-23T23:30:14.352Z,6.45
2023-03-23T23:31:22.801Z,7.43
2023-03-23T23:32:27.299Z,6.47
2023-03-23T23:33:32.642Z,6.78
2023-03-23T23:34:36.306Z,6.35
2023-03-23T23:35:43.266Z,6.03
2023-03-23T23:36:45.910Z,6.68
2023-03-23T23:37:50.453Z,6.72
2023-03-23T23:38:53.012Z,5.40
2023-03-23T23:39:57.683Z,6.10
2023-03-23T23:41:00.325Z,6.65
2023-03-23T23:42:05.624Z,7.32
2023-03-23T23:43:08.632Z,6.13
2023-03-23T23:44:14.357Z,6.25
2023-03-23T23:45:17.485Z,6.60
2023-03-23T23:46:21.746Z,6.85
2023-03-23T23:47:24.519Z,6.63
2023-03-23T23:48:28.589Z,6.47
2023-03-23T23:49:33.153Z,5.72
2023-03-23T23:50:37.498Z,5.78
2023-03-23T23:51:41.503Z,6.30
2023-03-23T23:52:45.998Z,6.40
2023-03-23T23:53:53.703Z,7.32
2023-03-23T23:54:57.511Z,6.00
2023-03-23T23:56:03.035Z,6.85
2023-03-23T23:57:10.214Z,6.00
2023-03-23T23:58:17.856Z,6.55
2023-03-23T23:59:30.858Z,6.68
